9D7

Cando Municipal Airport

Cando, North Dakota, USA
METAR K9D7 210355Z AUTO 14009KT 10SM CLR 03/03 A3031 RMK AO2
Observed Flight Rules
Apr-21 @ 03:55 UTC (9 minutes ago) Visual Flight Rules
Wind Visibility Clouds
140° at 9 knots 10 miles
  • Clear skies
Temperatures Readings
Current 3°C / 37°F
Dewpoint 3°C / 37°F
Humidity 100%
Altimeter 30.31" Hg
Pressure 1026 hPa
Elevation 452
METAR K9D7 210355Z AUTO 14009KT 10SM CLR 03/03 A3031 RMK AO2
Observed Flight Rules
Apr-21 @ 03:55 UTC
(9 minutes ago)
VFR
Wind Visibility
140° at 9 knots 10 miles
Clouds
  • Clear skies
Temperature Dewpoint
3°C / 37°F 3°C / 37°F
Humidity Altimeter Pressure
100% 30.31" Hg 1026 hPa